createdAt,value
2022-12-08T00:00:20.639Z,101640.46
2022-12-08T00:02:51.165Z,101644.58
2022-12-08T00:05:21.126Z,101638.94
2022-12-08T00:07:50.979Z,101639.33
2022-12-08T00:10:18.854Z,101638.88
2022-12-08T00:12:37.687Z,101629.05
2022-12-08T00:14:53.879Z,101628.04
2022-12-08T00:17:10.819Z,101624.55
2022-12-08T00:19:24.104Z,101623.40
2022-12-08T00:21:37.358Z,101618.03
2022-12-08T00:23:50.725Z,101617.38
2022-12-08T00:26:08.643Z,101612.81
2022-12-08T00:28:22.098Z,101611.63
2022-12-08T00:30:35.552Z,101607.95
2022-12-08T00:32:49.064Z,101606.83
2022-12-08T00:35:02.739Z,101600.17
2022-12-08T00:37:16.606Z,101601.35
2022-12-08T00:39:30.006Z,101597.04
2022-12-08T00:41:59.878Z,101596.80
2022-12-08T00:44:14.203Z,101592.82
2022-12-08T00:46:27.451Z,101588.60
2022-12-08T00:48:40.664Z,101584.19
2022-12-08T00:50:53.860Z,101591.09
2022-12-08T00:53:07.141Z,101586.15
2022-12-08T00:55:20.495Z,101590.59
2022-12-08T00:57:33.762Z,101590.73
2022-12-08T00:59:47.108Z,101591.61
2022-12-08T01:02:00.288Z,101588.06
2022-12-08T01:04:14.662Z,101583.60
2022-12-08T01:06:27.794Z,101585.33
2022-12-08T01:08:42.616Z,101578.55
2022-12-08T01:10:55.872Z,101581.02
2022-12-08T01:13:09.055Z,101586.30
2022-12-08T01:15:22.326Z,101594.23
2022-12-08T01:17:35.655Z,101597.77
2022-12-08T01:19:49.233Z,101596.88
2022-12-08T01:22:02.732Z,101592.11
2022-12-08T01:24:18.522Z,101597.16
2022-12-08T01:26:31.852Z,101590.56
2022-12-08T01:28:45.765Z,101589.86
2022-12-08T01:30:59.273Z,101592.16
2022-12-08T01:33:12.675Z,101587.94
2022-12-08T01:35:26.085Z,101585.95
2022-12-08T01:37:39.447Z,101578.83
2022-12-08T01:39:52.663Z,101579.48
2022-12-08T01:42:05.960Z,101575.93
2022-12-08T01:44:51.627Z,101568.67
2022-12-08T01:47:05.329Z,101562.52
2022-12-08T01:49:21.524Z,101558.92
2022-12-08T01:51:37.133Z,101563.60
2022-12-08T01:53:51.212Z,101557.20
2022-12-08T01:56:10.561Z,101556.67
2022-12-08T01:58:30.789Z,101552.94
2022-12-08T02:00:44.305Z,101565.13
2022-12-08T02:03:02.099Z,101561.94
2022-12-08T02:05:16.228Z,101564.39
2022-12-08T02:07:29.760Z,101569.98
2022-12-08T02:09:43.678Z,101568.36
2022-12-08T02:12:00.418Z,101567.25
2022-12-08T02:14:16.634Z,101562.26
2022-12-08T02:16:40.036Z,101560.62
2022-12-08T02:19:30.324Z,101554.98
2022-12-08T02:21:48.072Z,101551.11
2022-12-08T02:24:17.898Z,101539.98
2022-12-08T02:27:06.734Z,101545.61
2022-12-08T02:29:46.381Z,101538.56
2022-12-08T02:32:11.970Z,101538.43
2022-12-08T02:34:33.153Z,101537.06
2022-12-08T02:37:08.027Z,101535.52
2022-12-08T02:39:32.029Z,101535.04
2022-12-08T02:41:51.406Z,101533.80
2022-12-08T02:44:12.084Z,101530.79
2022-12-08T02:46:30.923Z,101533.78
2022-12-08T02:48:45.370Z,101530.73
2022-12-08T02:50:59.012Z,101529.66
2022-12-08T02:55:28.877Z,101523.91
2022-12-08T02:57:56.661Z,101523.17
2022-12-08T03:00:17.651Z,101516.41
2022-12-08T03:02:45.665Z,101516.40
2022-12-08T03:05:07.559Z,101512.16
2022-12-08T03:07:29.257Z,101503.13
2022-12-08T03:09:49.882Z,101499.89
2022-12-08T03:12:10.047Z,101497.73
2022-12-08T03:14:25.311Z,101491.70
2022-12-08T03:16:41.822Z,101491.81
2022-12-08T03:18:59.948Z,101491.75
2022-12-08T03:21:14.315Z,101487.05
2022-12-08T03:23:28.767Z,101487.92
2022-12-08T03:25:46.915Z,101487.34
2022-12-08T03:28:00.266Z,101486.43
2022-12-08T03:30:15.426Z,101484.42
2022-12-08T03:32:33.053Z,101481.77
2022-12-08T03:34:50.587Z,101484.77
2022-12-08T03:37:06.535Z,101475.41
2022-12-08T03:39:19.951Z,101476.10
2022-12-08T03:41:33.634Z,101472.57
2022-12-08T03:43:47.099Z,101476.11
2022-12-08T03:46:00.520Z,101478.95
2022-12-08T03:48:14.232Z,101480.52
2022-12-08T03:50:27.664Z,101478.58
2022-12-08T03:52:41.022Z,101475.16
2022-12-08T03:54:54.389Z,101475.45
2022-12-08T03:57:07.870Z,101473.77
2022-12-08T03:59:21.191Z,101472.09
2022-12-08T04:01:34.885Z,101479.10
2022-12-08T04:03:48.279Z,101477.08
2022-12-08T04:06:01.710Z,101466.52
2022-12-08T04:08:15.040Z,101470.31
2022-12-08T04:10:28.437Z,101464.06
2022-12-08T04:12:41.931Z,101454.99
2022-12-08T04:14:55.355Z,101455.13
2022-12-08T04:17:08.742Z,101456.30
2022-12-08T04:19:22.251Z,101450.33
2022-12-08T04:21:35.696Z,101444.31
2022-12-08T04:23:49.539Z,101449.69
2022-12-08T04:26:02.982Z,101446.70
2022-12-08T04:28:16.374Z,101449.56
2022-12-08T04:30:29.746Z,101440.60
2022-12-08T04:32:47.212Z,101440.42
2022-12-08T04:35:00.918Z,101440.61
2022-12-08T04:37:14.117Z,101434.23
2022-12-08T04:39:27.684Z,101428.92
2022-12-08T04:41:43.808Z,101425.53
2022-12-08T04:43:57.008Z,101422.14
2022-12-08T04:46:12.724Z,101418.46
2022-12-08T04:48:26.305Z,101407.56
2022-12-08T04:50:39.597Z,101402.89
2022-12-08T04:52:52.774Z,101402.65
2022-12-08T04:55:10.423Z,101403.69
2022-12-08T04:57:23.770Z,101406.14
2022-12-08T04:59:37.067Z,101393.52
2022-12-08T05:01:50.426Z,101395.98
2022-12-08T05:04:03.844Z,101391.54
2022-12-08T05:06:18.788Z,101386.77
2022-12-08T05:08:32.507Z,101386.23
2022-12-08T05:10:46.010Z,101386.39
2022-12-08T05:13:01.133Z,101386.23
2022-12-08T05:15:15.347Z,101385.34
2022-12-08T05:17:28.776Z,101386.71
2022-12-08T05:19:42.439Z,101374.12
2022-12-08T05:21:55.777Z,101375.84
2022-12-08T05:24:09.753Z,101366.25
2022-12-08T05:26:25.450Z,101356.48
2022-12-08T05:28:43.057Z,101354.20
2022-12-08T05:30:57.008Z,101355.77
2022-12-08T05:33:10.302Z,101364.55
2022-12-08T05:35:23.757Z,101364.66
2022-12-08T05:37:37.119Z,101354.85
2022-12-08T05:39:50.317Z,101358.34
2022-12-08T05:42:03.552Z,101363.04
2022-12-08T05:44:17.221Z,101363.52
2022-12-08T05:46:30.696Z,101364.57
2022-12-08T05:48:43.999Z,101371.84
2022-12-08T05:50:57.553Z,101371.84
2022-12-08T05:53:10.813Z,101361.14
2022-12-08T05:55:24.276Z,101362.02
2022-12-08T05:57:37.590Z,101355.59
2022-12-08T05:59:50.847Z,101360.27
2022-12-08T06:02:04.369Z,101366.77
2022-12-08T06:04:17.581Z,101361.04
2022-12-08T06:06:31.040Z,101360.81
2022-12-08T06:08:44.612Z,101361.11
2022-12-08T06:10:57.758Z,101362.34
2022-12-08T06:13:10.879Z,101360.70
2022-12-08T06:15:24.693Z,101354.44
2022-12-08T06:17:37.877Z,101364.02
2022-12-08T06:19:51.081Z,101357.36
2022-12-08T06:22:04.256Z,101346.63
2022-12-08T06:24:17.380Z,101343.20
2022-12-08T06:26:31.057Z,101345.14
2022-12-08T06:28:44.985Z,101334.49
2022-12-08T06:30:58.116Z,101331.77
2022-12-08T06:33:11.479Z,101328.07
2022-12-08T06:35:25.032Z,101322.69
2022-12-08T06:37:38.235Z,101319.12
2022-12-08T06:39:51.874Z,101320.86
2022-12-08T06:42:18.154Z,101316.52
2022-12-08T06:44:31.525Z,101312.50
2022-12-08T06:46:44.735Z,101303.44
2022-12-08T06:48:57.759Z,101308.93
2022-12-08T06:51:15.989Z,101311.77
2022-12-08T06:53:29.191Z,101318.97
2022-12-08T06:56:01.085Z,101311.48
2022-12-08T06:58:14.643Z,101309.81
2022-12-08T07:00:28.998Z,101306.92
2022-12-08T07:02:42.227Z,101301.06
2022-12-08T07:04:55.474Z,101298.77
2022-12-08T07:07:08.693Z,101295.55
2022-12-08T07:09:21.865Z,101292.17
2022-12-08T07:11:35.066Z,101284.48
2022-12-08T07:13:48.296Z,101284.09
2022-12-08T07:16:01.661Z,101296.64
2022-12-08T07:18:14.932Z,101287.09
2022-12-08T07:20:28.409Z,101274.70
2022-12-08T07:22:41.779Z,101263.55
2022-12-08T07:24:54.906Z,101263.42
2022-12-08T07:27:08.174Z,101264.77
2022-12-08T07:29:26.370Z,101260.45
2022-12-08T07:31:39.997Z,101272.50
2022-12-08T07:33:53.738Z,101268.50
2022-12-08T07:36:08.910Z,101284.46
2022-12-08T07:38:22.280Z,101283.95
2022-12-08T07:40:35.564Z,101287.16
2022-12-08T07:42:48.780Z,101285.27
2022-12-08T07:45:01.979Z,101298.48
2022-12-08T07:47:15.115Z,101283.77
2022-12-08T07:49:28.598Z,101284.06
2022-12-08T07:51:41.841Z,101271.80
2022-12-08T07:53:55.863Z,101268.55
2022-12-08T07:56:12.056Z,101262.05
2022-12-08T07:58:25.450Z,101253.61
2022-12-08T08:00:38.983Z,101243.13
2022-12-08T08:02:52.644Z,101254.61
2022-12-08T08:05:06.027Z,101238.27
2022-12-08T08:07:19.490Z,101237.20
2022-12-08T08:09:32.840Z,101239.27
2022-12-08T08:11:56.013Z,101234.98
2022-12-08T08:14:19.349Z,101239.30
2022-12-08T08:16:38.151Z,101248.08
2022-12-08T08:18:52.893Z,101243.96
2022-12-08T08:21:15.966Z,101240.10
2022-12-08T08:23:39.359Z,101236.48
2022-12-08T08:25:52.623Z,101244.23
2022-12-08T08:28:05.645Z,101247.23
2022-12-08T08:30:21.245Z,101242.55
2022-12-08T08:32:35.772Z,101234.38
2022-12-08T08:34:49.029Z,101238.05
2022-12-08T08:37:02.329Z,101229.00
2022-12-08T08:39:15.865Z,101241.52
2022-12-08T08:41:29.118Z,101238.78
2022-12-08T08:43:42.359Z,101225.95
2022-12-08T08:45:56.503Z,101224.20
2022-12-08T08:48:09.983Z,101223.48
2022-12-08T08:50:23.266Z,101226.91
2022-12-08T08:52:36.829Z,101216.98
2022-12-08T08:54:50.060Z,101210.98
2022-12-08T08:57:04.189Z,101213.48
2022-12-08T08:59:17.862Z,101209.10
2022-12-08T09:01:32.261Z,101205.23
2022-12-08T09:03:45.741Z,101200.08
2022-12-08T09:05:59.173Z,101208.30
2022-12-08T09:08:12.677Z,101215.66
2022-12-08T09:10:26.178Z,101211.86
2022-12-08T09:12:39.456Z,101214.31
2022-12-08T09:14:52.665Z,101217.04
2022-12-08T09:17:05.852Z,101223.51
2022-12-08T09:19:19.129Z,101209.34
2022-12-08T09:21:32.810Z,101217.86
2022-12-08T09:23:45.990Z,101217.02
2022-12-08T09:25:59.194Z,101219.44
2022-12-08T09:28:12.949Z,101218.15
2022-12-08T09:30:26.541Z,101215.41
2022-12-08T09:32:39.768Z,101215.52
2022-12-08T09:34:52.884Z,101233.70
2022-12-08T09:37:06.183Z,101234.92
2022-12-08T09:39:19.349Z,101222.80
2022-12-08T09:41:42.022Z,101232.76
2022-12-08T09:44:10.115Z,101231.19
2022-12-08T09:46:25.050Z,101230.34
2022-12-08T09:48:41.140Z,101234.23
2022-12-08T09:50:58.128Z,101234.22
2022-12-08T09:53:16.394Z,101232.98
2022-12-08T09:55:38.558Z,101219.17
2022-12-08T09:57:56.576Z,101229.20
2022-12-08T10:00:19.749Z,101230.83
2022-12-08T10:02:34.784Z,101236.35
2022-12-08T10:04:49.121Z,101252.49
2022-12-08T10:07:08.853Z,101257.25
2022-12-08T10:09:32.660Z,101253.95
2022-12-08T10:11:54.968Z,101258.82
2022-12-08T10:14:19.558Z,101266.61
2022-12-08T10:16:38.141Z,101304.59
2022-12-08T10:18:56.361Z,101319.64
2022-12-08T10:21:20.014Z,101334.70
2022-12-08T10:23:37.019Z,101336.25
2022-12-08T10:25:52.105Z,101339.58
2022-12-08T10:28:05.333Z,101334.92
2022-12-08T10:30:21.335Z,101334.94
2022-12-08T10:32:40.190Z,101334.46
2022-12-08T10:35:13.209Z,101337.40
2022-12-08T10:37:26.561Z,101338.62
2022-12-08T10:39:45.529Z,101345.45
2022-12-08T10:42:03.605Z,101353.17
2022-12-08T10:44:17.092Z,101357.92
2022-12-08T10:46:32.451Z,101357.90
2022-12-08T10:48:54.161Z,101361.98
2022-12-08T10:51:07.891Z,101363.05
2022-12-08T10:53:24.528Z,101364.26
2022-12-08T10:55:47.849Z,101368.27
2022-12-08T10:58:01.313Z,101362.61
2022-12-08T11:00:22.634Z,101357.50
2022-12-08T11:02:36.102Z,101352.52
2022-12-08T11:04:49.689Z,101349.15
2022-12-08T11:07:03.528Z,101349.69
2022-12-08T11:09:35.510Z,101351.80
2022-12-08T11:11:52.521Z,101352.23
2022-12-08T11:14:19.246Z,101352.10
2022-12-08T11:16:34.919Z,101353.71
2022-12-08T11:18:52.096Z,101350.48
2022-12-08T11:21:14.374Z,101349.19
2022-12-08T11:23:31.822Z,101342.27
2022-12-08T11:25:46.252Z,101343.54
2022-12-08T11:28:03.516Z,101344.23
2022-12-08T11:30:23.028Z,101348.00
2022-12-08T11:32:36.733Z,101348.21
2022-12-08T11:34:54.097Z,101345.55
2022-12-08T11:37:11.378Z,101349.44
2022-12-08T11:39:25.738Z,101349.23
2022-12-08T11:41:43.283Z,101342.84
2022-12-08T11:44:04.842Z,101336.62
2022-12-08T11:46:23.536Z,101331.35
2022-12-08T11:48:41.539Z,101335.27
2022-12-08T11:50:59.865Z,101334.07
2022-12-08T11:53:20.991Z,101331.98
2022-12-08T11:55:46.604Z,101330.20
2022-12-08T11:58:07.521Z,101333.71
2022-12-08T12:00:22.158Z,101333.03
2022-12-08T12:02:43.866Z,101330.16
2022-12-08T12:05:00.749Z,101325.84
2022-12-08T12:07:38.590Z,101324.34
2022-12-08T12:10:06.479Z,101329.27
2022-12-08T12:12:39.628Z,101329.27
2022-12-08T12:15:42.206Z,101328.45
2022-12-08T12:18:00.818Z,101328.27
2022-12-08T12:20:21.191Z,101333.05
2022-12-08T12:22:39.417Z,101330.77
2022-12-08T12:24:55.431Z,101329.39
2022-12-08T12:27:11.967Z,101324.52
2022-12-08T12:29:27.237Z,101318.82
2022-12-08T12:31:44.502Z,101319.95
2022-12-08T12:34:00.979Z,101324.81
2022-12-08T12:36:17.212Z,101331.79
2022-12-08T12:38:51.625Z,101333.14
2022-12-08T12:41:08.907Z,101328.16
2022-12-08T12:43:35.281Z,101325.35
2022-12-08T12:45:48.557Z,101324.14
2022-12-08T12:48:27.515Z,101325.30
2022-12-08T12:50:50.992Z,101333.91
2022-12-08T12:53:12.285Z,101341.55
2022-12-08T12:55:58.133Z,101346.20
2022-12-08T12:58:36.748Z,101354.65
2022-12-08T13:00:50.119Z,101359.92
2022-12-08T13:03:04.165Z,101359.91
2022-12-08T13:05:22.207Z,101362.61
2022-12-08T13:07:38.188Z,101355.52
2022-12-08T13:09:59.195Z,101346.61
2022-12-08T13:12:24.024Z,101335.34
2022-12-08T13:14:39.828Z,101335.08
2022-12-08T13:17:00.881Z,101324.22
2022-12-08T13:19:19.914Z,101329.23
2022-12-08T13:21:39.232Z,101357.25
2022-12-08T13:23:54.548Z,101363.68
2022-12-08T13:26:20.866Z,101356.88
2022-12-08T13:28:36.544Z,101358.35
2022-12-08T13:30:51.345Z,101360.92
2022-12-08T13:33:17.796Z,101364.27
2022-12-08T13:35:33.060Z,101361.65
2022-12-08T13:37:55.410Z,101358.55
2022-12-08T13:40:14.005Z,101362.79
2022-12-08T13:42:33.478Z,101357.88
2022-12-08T13:45:19.061Z,101356.98
2022-12-08T13:47:35.174Z,101356.81
2022-12-08T13:51:45.345Z,101366.69
2022-12-08T13:57:58.739Z,101369.51
2022-12-08T14:00:19.687Z,101372.36
2022-12-08T14:02:40.859Z,101376.84
2022-12-08T14:07:33.087Z,101389.93
2022-12-08T14:09:46.917Z,101391.58
2022-12-08T14:12:04.594Z,101391.53
2022-12-08T14:14:53.682Z,101389.67
2022-12-08T14:17:00.022Z,101391.00
2022-12-08T14:19:24.672Z,101393.73
2022-12-08T14:21:37.918Z,101397.33
2022-12-08T14:23:52.087Z,101403.00
2022-12-08T14:26:05.716Z,101403.23
2022-12-08T14:28:18.961Z,101398.32
2022-12-08T14:30:35.418Z,101396.59
2022-12-08T14:32:52.465Z,101391.27
2022-12-08T14:35:15.895Z,101391.15
2022-12-08T14:37:30.502Z,101396.37
2022-12-08T14:39:44.216Z,101396.29
2022-12-08T14:42:11.828Z,101400.02
2022-12-08T14:44:29.343Z,101399.86
2022-12-08T14:46:42.737Z,101398.25
2022-12-08T14:48:57.795Z,101390.15
2022-12-08T14:51:18.115Z,101389.96
2022-12-08T14:53:34.092Z,101389.75
2022-12-08T14:55:48.891Z,101389.20
2022-12-08T14:58:02.275Z,101392.31
2022-12-08T15:00:25.267Z,101395.73
2022-12-08T15:02:45.127Z,101399.04
2022-12-08T15:05:04.855Z,101400.77
2022-12-08T15:07:21.419Z,101397.15
2022-12-08T15:09:39.320Z,101399.23
2022-12-08T15:12:03.345Z,101404.36
2022-12-08T15:14:35.141Z,101406.46
2022-12-08T15:16:49.697Z,101402.77
2022-12-08T15:19:29.488Z,101401.73
2022-12-08T15:21:44.465Z,101393.09
2022-12-08T15:23:57.951Z,101385.90
2022-12-08T15:26:12.132Z,101377.71
2022-12-08T15:28:30.056Z,101374.72
2022-12-08T15:30:44.032Z,101374.38
2022-12-08T15:32:57.435Z,101371.23
2022-12-08T15:35:16.279Z,101378.49
2022-12-08T15:37:29.972Z,101383.73
2022-12-08T15:39:43.744Z,101386.79
2022-12-08T15:41:56.958Z,101391.29
2022-12-08T15:44:10.053Z,101399.69
2022-12-08T15:46:23.259Z,101403.67
2022-12-08T15:48:36.738Z,101411.48
2022-12-08T15:50:50.196Z,101408.06
2022-12-08T15:53:03.756Z,101403.19
2022-12-08T15:55:19.131Z,101403.52
2022-12-08T16:00:24.450Z,101396.54
2022-12-08T16:03:13.198Z,101393.95
2022-12-08T16:07:52.893Z,101387.31
2022-12-08T16:10:08.553Z,101392.49
2022-12-08T16:17:48.296Z,101397.98
2022-12-08T16:20:01.632Z,101404.01
2022-12-08T16:24:55.301Z,101407.50
2022-12-08T16:28:00.080Z,101411.63
2022-12-08T16:30:03.129Z,101411.77
2022-12-08T16:32:16.452Z,101412.08
2022-12-08T16:34:29.727Z,101413.30
2022-12-08T16:36:43.014Z,101417.47
2022-12-08T16:38:56.185Z,101419.46
2022-12-08T16:41:26.366Z,101418.16
2022-12-08T16:43:40.576Z,101423.84
2022-12-08T16:45:54.097Z,101429.63
2022-12-08T16:48:07.577Z,101438.74
2022-12-08T16:50:23.825Z,101438.17
2022-12-08T16:52:37.108Z,101431.26
2022-12-08T16:54:50.469Z,101423.89
2022-12-08T16:57:03.891Z,101426.73
2022-12-08T16:59:17.320Z,101434.67
2022-12-08T17:01:30.642Z,101442.95
2022-12-08T17:04:01.325Z,101446.61
2022-12-08T17:06:22.486Z,101447.90
2022-12-08T17:08:35.744Z,101456.70
2022-12-08T17:11:08.469Z,101456.19
2022-12-08T17:13:21.820Z,101452.02
2022-12-08T17:15:35.143Z,101445.79
2022-12-08T17:17:48.463Z,101446.91
2022-12-08T17:20:01.784Z,101448.09
2022-12-08T17:22:17.580Z,101442.26
2022-12-08T17:24:31.432Z,101444.67
2022-12-08T17:26:44.736Z,101454.14
2022-12-08T17:29:01.576Z,101454.11
2022-12-08T17:31:21.355Z,101451.35
2022-12-08T17:33:35.528Z,101449.28
2022-12-08T17:35:53.848Z,101450.80
2022-12-08T17:38:07.084Z,101447.56
2022-12-08T17:40:20.472Z,101450.84
2022-12-08T17:42:33.713Z,101455.52
2022-12-08T17:44:47.987Z,101461.73
2022-12-08T17:47:01.156Z,101463.84
2022-12-08T17:49:20.350Z,101457.12
2022-12-08T17:51:33.533Z,101443.76
2022-12-08T17:53:46.689Z,101433.95
2022-12-08T17:56:01.449Z,101428.17
2022-12-08T17:58:15.166Z,101431.41
2022-12-08T18:00:28.669Z,101436.86
2022-12-08T18:02:42.044Z,101448.49
2022-12-08T18:04:55.319Z,101445.88
2022-12-08T18:07:08.454Z,101450.89
2022-12-08T18:09:22.251Z,101452.73
2022-12-08T18:11:36.653Z,101454.22
2022-12-08T18:13:49.990Z,101461.46
2022-12-08T18:16:03.690Z,101469.08
2022-12-08T18:18:16.904Z,101463.66
2022-12-08T18:20:30.416Z,101465.46
2022-12-08T18:22:43.975Z,101474.68
2022-12-08T18:24:57.858Z,101480.10
2022-12-08T18:27:11.580Z,101475.94
2022-12-08T18:29:25.578Z,101473.64
2022-12-08T18:31:38.833Z,101470.35
2022-12-08T18:33:53.658Z,101466.44
2022-12-08T18:36:09.247Z,101464.58
2022-12-08T18:38:22.564Z,101462.41
2022-12-08T18:40:35.831Z,101463.79
2022-12-08T18:42:49.230Z,101463.39
2022-12-08T18:45:05.516Z,101462.07
2022-12-08T18:47:19.151Z,101459.96
2022-12-08T18:49:32.461Z,101462.25
2022-12-08T18:51:46.206Z,101460.63
2022-12-08T18:54:01.597Z,101459.29
2022-12-08T18:56:23.407Z,101451.93
2022-12-08T18:58:59.878Z,101446.60
2022-12-08T19:01:19.517Z,101447.19
2022-12-08T19:03:32.769Z,101445.33
2022-12-08T19:05:46.479Z,101438.55
2022-12-08T19:07:59.751Z,101436.25
2022-12-08T19:10:15.669Z,101435.36
2022-12-08T19:12:29.013Z,101433.35
2022-12-08T19:14:42.269Z,101433.27
2022-12-08T19:16:55.541Z,101421.60
2022-12-08T19:19:09.325Z,101419.20
2022-12-08T19:21:22.780Z,101424.45
2022-12-08T19:23:36.349Z,101425.38
2022-12-08T19:25:49.727Z,101424.77
2022-12-08T19:28:02.933Z,101426.69
2022-12-08T19:30:17.886Z,101427.90
2022-12-08T19:32:32.103Z,101418.02
2022-12-08T19:34:45.343Z,101416.66
2022-12-08T19:36:58.548Z,101412.63
2022-12-08T19:39:28.576Z,101413.06
2022-12-08T19:41:58.691Z,101408.26
2022-12-08T19:44:34.364Z,101403.23
2022-12-08T19:46:47.727Z,101407.30
2022-12-08T19:49:01.170Z,101409.45
2022-12-08T19:51:14.974Z,101403.25
2022-12-08T19:53:28.680Z,101399.61
2022-12-08T19:55:42.431Z,101396.05
2022-12-08T19:57:55.953Z,101394.97
2022-12-08T20:00:14.707Z,101394.98
2022-12-08T20:02:28.145Z,101391.11
2022-12-08T20:04:41.479Z,101381.45
2022-12-08T20:06:55.661Z,101381.94
2022-12-08T20:09:09.276Z,101381.15
2022-12-08T20:11:22.480Z,101385.10
2022-12-08T20:13:46.694Z,101387.02
2022-12-08T20:16:00.270Z,101378.95
2022-12-08T20:18:13.989Z,101372.38
2022-12-08T20:20:27.266Z,101372.15
2022-12-08T20:22:41.083Z,101375.48
2022-12-08T20:25:00.691Z,101377.70
2022-12-08T20:27:14.437Z,101372.83
2022-12-08T20:29:27.763Z,101369.33
2022-12-08T20:31:41.677Z,101358.57
2022-12-08T20:33:55.099Z,101354.02
2022-12-08T20:36:10.480Z,101353.52
2022-12-08T20:38:23.723Z,101350.08
2022-12-08T20:40:37.038Z,101356.89
2022-12-08T20:42:50.526Z,101358.84
2022-12-08T20:45:04.005Z,101360.60
2022-12-08T20:47:18.005Z,101362.74
2022-12-08T20:49:34.511Z,101368.73
2022-12-08T20:51:48.765Z,101368.36
2022-12-08T20:54:02.845Z,101370.81
2022-12-08T20:56:20.946Z,101379.64
2022-12-08T20:58:34.480Z,101381.68
2022-12-08T21:00:47.838Z,101383.61
2022-12-08T21:03:01.889Z,101389.58
2022-12-08T21:05:16.250Z,101392.24
2022-12-08T21:07:29.916Z,101396.31
2022-12-08T21:09:43.632Z,101392.62
2022-12-08T21:11:57.266Z,101383.95
2022-12-08T21:14:10.599Z,101350.56
2022-12-08T21:16:25.375Z,101356.02
2022-12-08T21:18:39.931Z,101360.67
2022-12-08T21:20:54.374Z,101365.73
2022-12-08T21:23:07.754Z,101372.30
2022-12-08T21:25:23.191Z,101365.32
2022-12-08T21:27:36.644Z,101365.88
2022-12-08T21:29:50.055Z,101363.82
2022-12-08T21:32:04.842Z,101367.14
2022-12-08T21:34:18.257Z,101369.35
2022-12-08T21:36:31.747Z,101364.98
2022-12-08T21:38:45.728Z,101364.39
2022-12-08T21:40:59.321Z,101363.80
2022-12-08T21:43:13.052Z,101367.36
2022-12-08T21:45:27.367Z,101366.17
2022-12-08T21:47:40.802Z,101367.98
2022-12-08T21:49:54.185Z,101372.02
2022-12-08T21:52:07.589Z,101373.76
2022-12-08T21:54:21.167Z,101378.22
2022-12-08T21:56:34.605Z,101368.88
2022-12-08T21:58:48.267Z,101371.53
2022-12-08T22:01:01.701Z,101370.46
2022-12-08T22:03:18.933Z,101370.43
2022-12-08T22:05:32.479Z,101370.74
2022-12-08T22:07:48.615Z,101373.33
2022-12-08T22:10:02.488Z,101370.67
2022-12-08T22:12:17.639Z,101374.99
2022-12-08T22:14:31.124Z,101377.84
2022-12-08T22:16:44.808Z,101378.02
2022-12-08T22:18:58.239Z,101377.83
2022-12-08T22:21:17.629Z,101382.05
2022-12-08T22:23:31.541Z,101377.91
2022-12-08T22:25:44.825Z,101373.62
2022-12-08T22:27:57.883Z,101375.66
2022-12-08T22:30:13.948Z,101376.95
2022-12-08T22:32:27.304Z,101374.70
2022-12-08T22:34:40.834Z,101375.04
2022-12-08T22:36:56.751Z,101371.67
2022-12-08T22:39:10.654Z,101367.02
2022-12-08T22:41:24.932Z,101369.73
2022-12-08T22:43:38.426Z,101372.39
2022-12-08T22:45:51.935Z,101370.05
2022-12-08T22:48:05.188Z,101366.63
2022-12-08T22:50:18.702Z,101361.85
2022-12-08T22:52:32.142Z,101361.28
2022-12-08T22:54:45.377Z,101366.26
2022-12-08T22:56:58.598Z,101369.39
2022-12-08T22:59:12.209Z,101376.73
2022-12-08T23:01:31.958Z,101375.94
2022-12-08T23:03:45.555Z,101380.14
2022-12-08T23:05:59.312Z,101385.77
2022-12-08T23:08:16.728Z,101381.70
2022-12-08T23:10:30.279Z,101382.25
2022-12-08T23:12:43.520Z,101380.08
2022-12-08T23:14:56.684Z,101378.50
2022-12-08T23:17:10.159Z,101381.00
2022-12-08T23:19:23.527Z,101383.02
2022-12-08T23:21:36.772Z,101381.65
2022-12-08T23:23:50.492Z,101378.00
2022-12-08T23:26:04.044Z,101377.86
2022-12-08T23:28:17.630Z,101380.13
2022-12-08T23:30:30.971Z,101379.89
2022-12-08T23:32:44.216Z,101385.52
2022-12-08T23:34:57.465Z,101382.41
2022-12-08T23:37:10.743Z,101378.63
2022-12-08T23:39:26.090Z,101375.98
2022-12-08T23:41:39.348Z,101379.95
2022-12-08T23:43:54.246Z,101382.13
2022-12-08T23:46:07.796Z,101387.52
2022-12-08T23:48:21.148Z,101387.98
2022-12-08T23:50:34.471Z,101384.65
2022-12-08T23:52:47.764Z,101377.71
2022-12-08T23:55:01.400Z,101380.62
2022-12-08T23:57:14.755Z,101375.73
2022-12-08T23:59:28.077Z,101374.39
